sensor_id;sensor_type;location;lat;lon;timestamp;temperature;humidity
15343;DHT22;7771;48.478;8.936;2022-12-18T00:02:04;-7.80;99.90
15343;DHT22;7771;48.478;8.936;2022-12-18T00:04:32;-7.70;99.90
15343;DHT22;7771;48.478;8.936;2022-12-18T00:06:59;-7.80;99.90
15343;DHT22;7771;48.478;8.936;2022-12-18T00:09:26;-7.70;99.90
15343;DHT22;7771;48.478;8.936;2022-12-18T00:11:52;-7.80;99.90
15343;DHT22;7771;48.478;8.936;2022-12-18T00:14:19;-7.80;99.90
15343;DHT22;7771;48.478;8.936;2022-12-18T00:16:46;-7.70;99.90
15343;DHT22;7771;48.478;8.936;2022-12-18T00:19:13;-7.70;99.90
15343;DHT22;7771;48.478;8.936;2022-12-18T00:21:40;-7.70;99.90
15343;DHT22;7771;48.478;8.936;2022-12-18T00:24:06;-7.70;99.90
15343;DHT22;7771;48.478;8.936;2022-12-18T00:29:05;-7.70;99.90
15343;DHT22;7771;48.478;8.936;2022-12-18T00:31:30;-7.70;99.90
15343;DHT22;7771;48.478;8.936;2022-12-18T00:33:56;-7.70;99.90
15343;DHT22;7771;48.478;8.936;2022-12-18T00:36:24;-7.70;99.90
15343;DHT22;7771;48.478;8.936;2022-12-18T00:38:49;-7.70;99.90
15343;DHT22;7771;48.478;8.936;2022-12-18T00:41:16;-7.70;99.90
15343;DHT22;7771;48.478;8.936;2022-12-18T00:43:43;-7.70;99.90
15343;DHT22;7771;48.478;8.936;2022-12-18T00:46:10;-7.70;99.90
15343;DHT22;7771;48.478;8.936;2022-12-18T00:48:37;-7.60;99.90
15343;DHT22;7771;48.478;8.936;2022-12-18T00:51:03;-7.70;99.90
15343;DHT22;7771;48.478;8.936;2022-12-18T00:53:30;-7.70;99.90
15343;DHT22;7771;48.478;8.936;2022-12-18T00:55:58;-7.70;99.90
15343;DHT22;7771;48.478;8.936;2022-12-18T00:58:25;-7.70;99.90
15343;DHT22;7771;48.478;8.936;2022-12-18T01:00:52;-7.70;99.90
15343;DHT22;7771;48.478;8.936;2022-12-18T01:03:19;-7.80;99.90
15343;DHT22;7771;48.478;8.936;2022-12-18T01:05:47;-7.80;99.90
15343;DHT22;7771;48.478;8.936;2022-12-18T01:08:13;-7.80;99.90
15343;DHT22;7771;48.478;8.936;2022-12-18T01:10:40;-7.80;99.90
15343;DHT22;7771;48.478;8.936;2022-12-18T01:13:07;-7.90;99.90
15343;DHT22;7771;48.478;8.936;2022-12-18T01:15:34;-7.80;99.90
15343;DHT22;7771;48.478;8.936;2022-12-18T01:18:00;-7.90;99.90
15343;DHT22;7771;48.478;8.936;2022-12-18T01:20:27;-7.90;99.90
15343;DHT22;7771;48.478;8.936;2022-12-18T01:22:53;-7.90;99.90
15343;DHT22;7771;48.478;8.936;2022-12-18T01:25:20;-7.90;99.90
15343;DHT22;7771;48.478;8.936;2022-12-18T01:30:15;-7.90;99.90
15343;DHT22;7771;48.478;8.936;2022-12-18T01:32:42;-7.90;99.90
15343;DHT22;7771;48.478;8.936;2022-12-18T01:35:10;-7.90;99.90
15343;DHT22;7771;48.478;8.936;2022-12-18T01:37:37;-8.00;99.90
15343;DHT22;7771;48.478;8.936;2022-12-18T01:40:05;-8.00;99.90
15343;DHT22;7771;48.478;8.936;2022-12-18T01:42:32;-8.00;99.90
15343;DHT22;7771;48.478;8.936;2022-12-18T01:45:05;-8.00;99.90
15343;DHT22;7771;48.478;8.936;2022-12-18T01:47:47;-8.00;99.90
15343;DHT22;7771;48.478;8.936;2022-12-18T01:50:17;-8.00;99.90
15343;DHT22;7771;48.478;8.936;2022-12-18T01:52:43;-8.10;99.90
15343;DHT22;7771;48.478;8.936;2022-12-18T01:55:10;-8.00;99.90
15343;DHT22;7771;48.478;8.936;2022-12-18T01:57:37;-8.00;99.90
15343;DHT22;7771;48.478;8.936;2022-12-18T02:00:08;-7.90;99.90
15343;DHT22;7771;48.478;8.936;2022-12-18T02:02:40;-8.00;99.90
15343;DHT22;7771;48.478;8.936;2022-12-18T02:05:07;-8.00;99.90
15343;DHT22;7771;48.478;8.936;2022-12-18T02:07:46;-8.00;99.90
15343;DHT22;7771;48.478;8.936;2022-12-18T02:10:26;-8.00;99.90
15343;DHT22;7771;48.478;8.936;2022-12-18T02:13:02;-8.00;99.90
15343;DHT22;7771;48.478;8.936;2022-12-18T02:15:32;-7.90;99.90
15343;DHT22;7771;48.478;8.936;2022-12-18T02:18:01;-7.90;99.90
15343;DHT22;7771;48.478;8.936;2022-12-18T02:20:32;-7.90;99.90
15343;DHT22;7771;48.478;8.936;2022-12-18T02:23:19;-7.00;99.90
15343;DHT22;7771;48.478;8.936;2022-12-18T02:25:54;-7.90;99.90
15343;DHT22;7771;48.478;8.936;2022-12-18T02:28:19;-7.90;99.90
15343;DHT22;7771;48.478;8.936;2022-12-18T02:30:45;-7.90;99.90
15343;DHT22;7771;48.478;8.936;2022-12-18T02:33:12;-7.80;99.90
15343;DHT22;7771;48.478;8.936;2022-12-18T02:35:39;-7.80;99.90
15343;DHT22;7771;48.478;8.936;2022-12-18T02:38:06;-7.80;99.90
15343;DHT22;7771;48.478;8.936;2022-12-18T02:40:33;-7.80;99.90
15343;DHT22;7771;48.478;8.936;2022-12-18T02:43:08;-7.70;99.90
15343;DHT22;7771;48.478;8.936;2022-12-18T02:45:35;-7.70;99.90
15343;DHT22;7771;48.478;8.936;2022-12-18T02:48:02;-7.70;99.90
15343;DHT22;7771;48.478;8.936;2022-12-18T02:50:31;-7.70;99.90
15343;DHT22;7771;48.478;8.936;2022-12-18T02:53:17;-7.70;99.90
15343;DHT22;7771;48.478;8.936;2022-12-18T02:55:49;-7.70;99.90
15343;DHT22;7771;48.478;8.936;2022-12-18T02:58:17;-7.70;99.90
15343;DHT22;7771;48.478;8.936;2022-12-18T03:00:52;-7.70;99.90
15343;DHT22;7771;48.478;8.936;2022-12-18T03:03:24;-7.70;99.90
15343;DHT22;7771;48.478;8.936;2022-12-18T03:05:53;-7.70;99.90
15343;DHT22;7771;48.478;8.936;2022-12-18T03:08:21;-7.70;99.90
15343;DHT22;7771;48.478;8.936;2022-12-18T03:10:49;-7.70;99.90
15343;DHT22;7771;48.478;8.936;2022-12-18T03:13:20;-7.70;99.90
15343;DHT22;7771;48.478;8.936;2022-12-18T03:15:45;-7.60;99.90
15343;DHT22;7771;48.478;8.936;2022-12-18T03:18:13;-7.70;99.90
15343;DHT22;7771;48.478;8.936;2022-12-18T03:20:38;-7.60;99.90
15343;DHT22;7771;48.478;8.936;2022-12-18T03:23:09;-7.60;99.90
15343;DHT22;7771;48.478;8.936;2022-12-18T03:25:34;-7.60;99.90
15343;DHT22;7771;48.478;8.936;2022-12-18T03:28:01;-7.70;99.90
15343;DHT22;7771;48.478;8.936;2022-12-18T03:30:28;-7.60;99.90
15343;DHT22;7771;48.478;8.936;2022-12-18T03:33:13;-7.60;99.90
15343;DHT22;7771;48.478;8.936;2022-12-18T03:35:40;-7.60;99.90
15343;DHT22;7771;48.478;8.936;2022-12-18T03:38:05;-7.60;99.90
15343;DHT22;7771;48.478;8.936;2022-12-18T03:40:43;-7.60;99.90
15343;DHT22;7771;48.478;8.936;2022-12-18T03:43:18;-7.60;99.90
15343;DHT22;7771;48.478;8.936;2022-12-18T03:45:46;-7.60;99.90
15343;DHT22;7771;48.478;8.936;2022-12-18T03:48:18;-7.60;99.90
15343;DHT22;7771;48.478;8.936;2022-12-18T03:50:49;-7.70;99.90
15343;DHT22;7771;48.478;8.936;2022-12-18T03:55:51;-7.70;99.90
15343;DHT22;7771;48.478;8.936;2022-12-18T03:58:19;-7.70;99.90
15343;DHT22;7771;48.478;8.936;2022-12-18T04:00:45;-7.70;99.90
15343;DHT22;7771;48.478;8.936;2022-12-18T04:03:11;-7.70;99.90
15343;DHT22;7771;48.478;8.936;2022-12-18T04:05:38;-7.70;99.90
15343;DHT22;7771;48.478;8.936;2022-12-18T04:08:05;-7.80;99.90
15343;DHT22;7771;48.478;8.936;2022-12-18T04:10:32;-7.70;99.90
15343;DHT22;7771;48.478;8.936;2022-12-18T04:12:58;-7.70;99.90
15343;DHT22;7771;48.478;8.936;2022-12-18T04:15:26;-7.70;99.90
15343;DHT22;7771;48.478;8.936;2022-12-18T04:17:52;-7.70;99.90
15343;DHT22;7771;48.478;8.936;2022-12-18T04:20:20;-7.80;99.90
15343;DHT22;7771;48.478;8.936;2022-12-18T04:22:47;-7.80;99.90
15343;DHT22;7771;48.478;8.936;2022-12-18T04:25:13;-7.80;99.90
15343;DHT22;7771;48.478;8.936;2022-12-18T04:27:39;-7.80;99.90
15343;DHT22;7771;48.478;8.936;2022-12-18T04:30:07;-7.80;99.90
15343;DHT22;7771;48.478;8.936;2022-12-18T04:32:34;-7.90;99.90
15343;DHT22;7771;48.478;8.936;2022-12-18T04:35:01;-7.90;99.90
15343;DHT22;7771;48.478;8.936;2022-12-18T04:37:27;-7.90;99.90
15343;DHT22;7771;48.478;8.936;2022-12-18T04:39:54;-7.90;99.90
15343;DHT22;7771;48.478;8.936;2022-12-18T04:42:23;-7.90;99.90
15343;DHT22;7771;48.478;8.936;2022-12-18T04:44:49;-7.90;99.90
15343;DHT22;7771;48.478;8.936;2022-12-18T04:49:44;-7.80;99.90
15343;DHT22;7771;48.478;8.936;2022-12-18T04:52:11;-7.80;99.90
15343;DHT22;7771;48.478;8.936;2022-12-18T04:54:38;-7.80;99.90
15343;DHT22;7771;48.478;8.936;2022-12-18T04:57:05;-7.80;99.90
15343;DHT22;7771;48.478;8.936;2022-12-18T04:59:32;-7.80;99.90
15343;DHT22;7771;48.478;8.936;2022-12-18T05:01:59;-7.90;99.90
15343;DHT22;7771;48.478;8.936;2022-12-18T05:04:25;-7.90;99.90
15343;DHT22;7771;48.478;8.936;2022-12-18T05:06:52;-7.90;99.90
15343;DHT22;7771;48.478;8.936;2022-12-18T05:09:18;-7.80;99.90
15343;DHT22;7771;48.478;8.936;2022-12-18T05:11:46;-7.80;99.90
15343;DHT22;7771;48.478;8.936;2022-12-18T05:14:12;-7.80;99.90
15343;DHT22;7771;48.478;8.936;2022-12-18T05:16:40;-7.70;99.90
15343;DHT22;7771;48.478;8.936;2022-12-18T05:21:34;-7.80;99.90
15343;DHT22;7771;48.478;8.936;2022-12-18T05:24:03;-7.80;99.90
15343;DHT22;7771;48.478;8.936;2022-12-18T05:26:29;-7.80;99.90
15343;DHT22;7771;48.478;8.936;2022-12-18T05:28:57;-7.90;99.90
15343;DHT22;7771;48.478;8.936;2022-12-18T05:33:51;-7.90;99.90
15343;DHT22;7771;48.478;8.936;2022-12-18T05:36:19;-7.90;99.90
15343;DHT22;7771;48.478;8.936;2022-12-18T05:38:45;-7.90;99.90
15343;DHT22;7771;48.478;8.936;2022-12-18T05:41:12;-7.90;99.90
15343;DHT22;7771;48.478;8.936;2022-12-18T05:46:10;-8.00;99.90
15343;DHT22;7771;48.478;8.936;2022-12-18T05:48:34;-8.00;99.90
15343;DHT22;7771;48.478;8.936;2022-12-18T05:51:07;-8.10;99.90
15343;DHT22;7771;48.478;8.936;2022-12-18T05:53:32;-8.10;99.90
15343;DHT22;7771;48.478;8.936;2022-12-18T05:56:00;-8.10;99.90
15343;DHT22;7771;48.478;8.936;2022-12-18T05:58:26;-8.10;99.90
15343;DHT22;7771;48.478;8.936;2022-12-18T06:00:54;-8.20;99.90
15343;DHT22;7771;48.478;8.936;2022-12-18T06:03:20;-8.20;99.90
15343;DHT22;7771;48.478;8.936;2022-12-18T06:05:47;-8.20;99.90
15343;DHT22;7771;48.478;8.936;2022-12-18T06:08:14;-8.20;99.90
15343;DHT22;7771;48.478;8.936;2022-12-18T06:10:41;-8.30;99.90
15343;DHT22;7771;48.478;8.936;2022-12-18T06:13:08;-8.30;99.90
15343;DHT22;7771;48.478;8.936;2022-12-18T06:15:36;-8.40;99.90
15343;DHT22;7771;48.478;8.936;2022-12-18T06:18:03;-8.50;99.90
15343;DHT22;7771;48.478;8.936;2022-12-18T06:20:30;-8.50;99.90
15343;DHT22;7771;48.478;8.936;2022-12-18T06:25:25;-8.60;99.90
15343;DHT22;7771;48.478;8.936;2022-12-18T06:27:53;-8.60;99.90
15343;DHT22;7771;48.478;8.936;2022-12-18T06:30:19;-8.60;99.90
15343;DHT22;7771;48.478;8.936;2022-12-18T06:32:47;-8.60;99.90
15343;DHT22;7771;48.478;8.936;2022-12-18T06:35:13;-8.70;99.90
15343;DHT22;7771;48.478;8.936;2022-12-18T06:37:40;-8.90;99.90
15343;DHT22;7771;48.478;8.936;2022-12-18T06:40:08;-9.00;99.90
15343;DHT22;7771;48.478;8.936;2022-12-18T06:42:34;-9.10;99.90
15343;DHT22;7771;48.478;8.936;2022-12-18T06:45:02;-9.20;99.90
15343;DHT22;7771;48.478;8.936;2022-12-18T06:47:28;-9.30;99.90
15343;DHT22;7771;48.478;8.936;2022-12-18T06:49:56;-9.40;99.90
15343;DHT22;7771;48.478;8.936;2022-12-18T06:52:23;-9.40;99.90
15343;DHT22;7771;48.478;8.936;2022-12-18T06:54:50;-9.50;99.90
15343;DHT22;7771;48.478;8.936;2022-12-18T06:57:16;-9.50;99.90
15343;DHT22;7771;48.478;8.936;2022-12-18T06:59:44;-9.60;99.90
15343;DHT22;7771;48.478;8.936;2022-12-18T07:02:11;-9.60;99.90
15343;DHT22;7771;48.478;8.936;2022-12-18T07:04:38;-9.70;99.90
15343;DHT22;7771;48.478;8.936;2022-12-18T07:07:05;-9.80;99.90
15343;DHT22;7771;48.478;8.936;2022-12-18T07:09:31;-9.90;99.90
15343;DHT22;7771;48.478;8.936;2022-12-18T07:11:59;-9.90;99.90
15343;DHT22;7771;48.478;8.936;2022-12-18T07:14:26;-9.90;99.90
15343;DHT22;7771;48.478;8.936;2022-12-18T07:16:53;-10.00;99.90
15343;DHT22;7771;48.478;8.936;2022-12-18T07:19:20;-10.00;99.90
15343;DHT22;7771;48.478;8.936;2022-12-18T07:21:47;-10.10;99.90
15343;DHT22;7771;48.478;8.936;2022-12-18T07:24:15;-10.20;99.90
15343;DHT22;7771;48.478;8.936;2022-12-18T07:26:42;-10.20;99.90
15343;DHT22;7771;48.478;8.936;2022-12-18T07:29:09;-10.20;99.90
15343;DHT22;7771;48.478;8.936;2022-12-18T07:31:37;-10.20;99.90
15343;DHT22;7771;48.478;8.936;2022-12-18T07:34:03;-10.10;99.90
15343;DHT22;7771;48.478;8.936;2022-12-18T07:36:30;-10.10;99.90
15343;DHT22;7771;48.478;8.936;2022-12-18T07:38:57;-10.10;99.90
15343;DHT22;7771;48.478;8.936;2022-12-18T07:41:25;-10.10;99.90
15343;DHT22;7771;48.478;8.936;2022-12-18T07:43:52;-10.10;99.90
15343;DHT22;7771;48.478;8.936;2022-12-18T07:46:19;-10.10;99.90
15343;DHT22;7771;48.478;8.936;2022-12-18T07:48:46;-10.10;99.90
15343;DHT22;7771;48.478;8.936;2022-12-18T07:51:12;-10.10;99.90
15343;DHT22;7771;48.478;8.936;2022-12-18T07:53:40;-9.90;99.90
15343;DHT22;7771;48.478;8.936;2022-12-18T07:56:08;-9.90;99.90
15343;DHT22;7771;48.478;8.936;2022-12-18T07:58:34;-9.90;99.90
15343;DHT22;7771;48.478;8.936;2022-12-18T08:01:05;-9.90;99.90
15343;DHT22;7771;48.478;8.936;2022-12-18T08:03:32;-9.80;99.90
15343;DHT22;7771;48.478;8.936;2022-12-18T08:05:59;-9.80;99.90
15343;DHT22;7771;48.478;8.936;2022-12-18T08:10:53;-9.80;99.90
15343;DHT22;7771;48.478;8.936;2022-12-18T08:13:19;-9.70;99.90
15343;DHT22;7771;48.478;8.936;2022-12-18T08:16:03;-9.70;99.90
15343;DHT22;7771;48.478;8.936;2022-12-18T08:20:57;-9.40;99.90
15343;DHT22;7771;48.478;8.936;2022-12-18T08:23:25;-9.30;99.90
15343;DHT22;7771;48.478;8.936;2022-12-18T08:25:52;-9.30;99.90
15343;DHT22;7771;48.478;8.936;2022-12-18T08:28:19;-9.10;99.90
15343;DHT22;7771;48.478;8.936;2022-12-18T08:30:50;-9.00;99.90
15343;DHT22;7771;48.478;8.936;2022-12-18T08:33:14;-8.90;99.90
15343;DHT22;7771;48.478;8.936;2022-12-18T08:35:40;-8.80;99.90
15343;DHT22;7771;48.478;8.936;2022-12-18T08:38:08;-8.70;99.90
15343;DHT22;7771;48.478;8.936;2022-12-18T08:40:34;-8.60;99.90
15343;DHT22;7771;48.478;8.936;2022-12-18T08:43:02;-8.50;99.90
15343;DHT22;7771;48.478;8.936;2022-12-18T08:45:34;-8.30;99.90
15343;DHT22;7771;48.478;8.936;2022-12-18T08:48:01;-8.20;99.90
15343;DHT22;7771;48.478;8.936;2022-12-18T08:50:27;-8.10;99.90
15343;DHT22;7771;48.478;8.936;2022-12-18T08:52:54;-8.00;99.90
15343;DHT22;7771;48.478;8.936;2022-12-18T08:55:21;-7.80;99.90
15343;DHT22;7771;48.478;8.936;2022-12-18T08:57:48;-7.70;99.90
15343;DHT22;7771;48.478;8.936;2022-12-18T09:00:15;-7.60;99.90
15343;DHT22;7771;48.478;8.936;2022-12-18T09:02:42;-7.50;99.90
15343;DHT22;7771;48.478;8.936;2022-12-18T09:05:09;-7.50;99.90
15343;DHT22;7771;48.478;8.936;2022-12-18T09:07:36;-7.30;99.90
15343;DHT22;7771;48.478;8.936;2022-12-18T09:10:03;-7.20;99.90
15343;DHT22;7771;48.478;8.936;2022-12-18T09:12:30;-7.00;99.90
15343;DHT22;7771;48.478;8.936;2022-12-18T09:14:56;-6.80;99.90
15343;DHT22;7771;48.478;8.936;2022-12-18T09:17:23;-6.80;99.90
15343;DHT22;7771;48.478;8.936;2022-12-18T09:19:50;-6.70;99.90
15343;DHT22;7771;48.478;8.936;2022-12-18T09:22:17;-6.60;99.90
15343;DHT22;7771;48.478;8.936;2022-12-18T09:24:44;-6.50;99.90
15343;DHT22;7771;48.478;8.936;2022-12-18T09:27:12;-6.50;99.90
15343;DHT22;7771;48.478;8.936;2022-12-18T09:29:41;-6.40;99.90
15343;DHT22;7771;48.478;8.936;2022-12-18T09:32:10;-6.30;99.90
15343;DHT22;7771;48.478;8.936;2022-12-18T09:37:06;-6.20;99.90
15343;DHT22;7771;48.478;8.936;2022-12-18T09:39:33;-6.10;99.90
15343;DHT22;7771;48.478;8.936;2022-12-18T09:42:00;-6.00;99.90
15343;DHT22;7771;48.478;8.936;2022-12-18T09:44:32;-5.90;99.90
15343;DHT22;7771;48.478;8.936;2022-12-18T09:47:05;-5.80;99.90
15343;DHT22;7771;48.478;8.936;2022-12-18T09:49:30;-5.80;99.90
15343;DHT22;7771;48.478;8.936;2022-12-18T09:51:59;-5.70;99.90
15343;DHT22;7771;48.478;8.936;2022-12-18T09:54:30;-5.70;99.90
15343;DHT22;7771;48.478;8.936;2022-12-18T09:56:53;-5.60;99.90
15343;DHT22;7771;48.478;8.936;2022-12-18T09:59:24;-5.50;99.90
15343;DHT22;7771;48.478;8.936;2022-12-18T10:01:50;-5.50;99.90
15343;DHT22;7771;48.478;8.936;2022-12-18T10:04:18;-5.40;99.90
15343;DHT22;7771;48.478;8.936;2022-12-18T10:06:49;-5.40;99.90
15343;DHT22;7771;48.478;8.936;2022-12-18T10:12:07;-5.30;99.90
15343;DHT22;7771;48.478;8.936;2022-12-18T10:14:36;-5.30;99.90
15343;DHT22;7771;48.478;8.936;2022-12-18T10:19:41;-5.20;99.90
15343;DHT22;7771;48.478;8.936;2022-12-18T10:22:11;-5.10;99.90
15343;DHT22;7771;48.478;8.936;2022-12-18T10:24:53;-5.00;99.90
15343;DHT22;7771;48.478;8.936;2022-12-18T10:27:23;-4.90;99.90
15343;DHT22;7771;48.478;8.936;2022-12-18T10:29:49;-4.80;99.90
15343;DHT22;7771;48.478;8.936;2022-12-18T10:32:17;-4.80;99.90
15343;DHT22;7771;48.478;8.936;2022-12-18T10:34:47;-4.70;99.90
15343;DHT22;7771;48.478;8.936;2022-12-18T10:37:15;-4.60;99.90
15343;DHT22;7771;48.478;8.936;2022-12-18T10:39:40;-4.50;99.90
15343;DHT22;7771;48.478;8.936;2022-12-18T10:42:11;-4.40;99.90
15343;DHT22;7771;48.478;8.936;2022-12-18T10:44:36;-4.30;99.90
15343;DHT22;7771;48.478;8.936;2022-12-18T10:47:04;-4.20;99.90
15343;DHT22;7771;48.478;8.936;2022-12-18T10:49:32;-4.20;99.90
15343;DHT22;7771;48.478;8.936;2022-12-18T10:52:14;-4.10;99.90
15343;DHT22;7771;48.478;8.936;2022-12-18T10:54:35;-4.10;99.90
15343;DHT22;7771;48.478;8.936;2022-12-18T10:57:14;-4.10;99.90
15343;DHT22;7771;48.478;8.936;2022-12-18T11:04:50;-3.90;99.90
15343;DHT22;7771;48.478;8.936;2022-12-18T11:07:16;-3.80;99.90
15343;DHT22;7771;48.478;8.936;2022-12-18T11:09:42;-3.70;99.90
15343;DHT22;7771;48.478;8.936;2022-12-18T11:12:19;-3.70;99.90
15343;DHT22;7771;48.478;8.936;2022-12-18T11:17:20;-3.50;99.90
15343;DHT22;7771;48.478;8.936;2022-12-18T11:19:46;-3.40;99.90
15343;DHT22;7771;48.478;8.936;2022-12-18T11:22:19;-3.40;99.90
15343;DHT22;7771;48.478;8.936;2022-12-18T11:24:53;-3.40;99.90
15343;DHT22;7771;48.478;8.936;2022-12-18T11:27:18;-3.50;99.90
15343;DHT22;7771;48.478;8.936;2022-12-18T11:29:46;-3.50;99.90
15343;DHT22;7771;48.478;8.936;2022-12-18T11:32:29;-3.50;99.90
15343;DHT22;7771;48.478;8.936;2022-12-18T11:35:09;-3.50;99.90
15343;DHT22;7771;48.478;8.936;2022-12-18T11:37:31;-3.40;99.90
15343;DHT22;7771;48.478;8.936;2022-12-18T11:40:00;-3.30;99.90
15343;DHT22;7771;48.478;8.936;2022-12-18T11:42:35;-3.20;99.90
15343;DHT22;7771;48.478;8.936;2022-12-18T11:45:04;-3.20;99.90
15343;DHT22;7771;48.478;8.936;2022-12-18T11:47:37;-3.10;99.90
15343;DHT22;7771;48.478;8.936;2022-12-18T11:50:01;-3.00;99.90
15343;DHT22;7771;48.478;8.936;2022-12-18T11:52:37;-2.90;99.90
15343;DHT22;7771;48.478;8.936;2022-12-18T11:55:09;-2.90;99.90
15343;DHT22;7771;48.478;8.936;2022-12-18T11:57:44;-2.80;99.90
15343;DHT22;7771;48.478;8.936;2022-12-18T12:00:22;-2.70;99.90
15343;DHT22;7771;48.478;8.936;2022-12-18T12:03:15;-2.70;99.90
15343;DHT22;7771;48.478;8.936;2022-12-18T12:08:56;-2.70;99.90
15343;DHT22;7771;48.478;8.936;2022-12-18T12:11:07;-2.60;99.90
15343;DHT22;7771;48.478;8.936;2022-12-18T12:13:37;-2.60;99.90
15343;DHT22;7771;48.478;8.936;2022-12-18T12:18:56;-2.50;99.90
15343;DHT22;7771;48.478;8.936;2022-12-18T12:21:39;-2.50;99.90
15343;DHT22;7771;48.478;8.936;2022-12-18T12:24:25;-2.50;99.90
15343;DHT22;7771;48.478;8.936;2022-12-18T12:26:57;-2.50;99.90
15343;DHT22;7771;48.478;8.936;2022-12-18T12:29:25;-2.40;99.90
15343;DHT22;7771;48.478;8.936;2022-12-18T12:31:59;-2.40;99.90
15343;DHT22;7771;48.478;8.936;2022-12-18T12:34:26;-2.40;99.90
15343;DHT22;7771;48.478;8.936;2022-12-18T12:37:01;-2.30;99.90
15343;DHT22;7771;48.478;8.936;2022-12-18T12:39:33;-2.30;99.90
15343;DHT22;7771;48.478;8.936;2022-12-18T12:41:58;-2.30;99.90
15343;DHT22;7771;48.478;8.936;2022-12-18T12:47:09;-2.20;99.90
15343;DHT22;7771;48.478;8.936;2022-12-18T12:49:32;-2.10;99.90
15343;DHT22;7771;48.478;8.936;2022-12-18T12:52:15;-2.10;99.90
15343;DHT22;7771;48.478;8.936;2022-12-18T12:54:41;-2.10;99.90
15343;DHT22;7771;48.478;8.936;2022-12-18T12:57:16;-2.10;99.90
15343;DHT22;7771;48.478;8.936;2022-12-18T12:59:49;-2.10;99.90
15343;DHT22;7771;48.478;8.936;2022-12-18T13:02:22;-2.00;99.90
15343;DHT22;7771;48.478;8.936;2022-12-18T13:07:32;-2.00;99.90
15343;DHT22;7771;48.478;8.936;2022-12-18T13:12:34;-1.90;99.90
15343;DHT22;7771;48.478;8.936;2022-12-18T13:15:13;-1.80;99.90
15343;DHT22;7771;48.478;8.936;2022-12-18T13:17:39;-1.80;99.90
15343;DHT22;7771;48.478;8.936;2022-12-18T13:20:08;-1.90;99.90
15343;DHT22;7771;48.478;8.936;2022-12-18T13:22:35;-1.90;99.90
15343;DHT22;7771;48.478;8.936;2022-12-18T13:25:01;-1.90;99.90
15343;DHT22;7771;48.478;8.936;2022-12-18T13:27:46;-1.80;99.90
15343;DHT22;7771;48.478;8.936;2022-12-18T13:35:42;-1.90;99.90
15343;DHT22;7771;48.478;8.936;2022-12-18T13:38:35;-1.90;99.90
15343;DHT22;7771;48.478;8.936;2022-12-18T13:41:01;-1.90;99.90
15343;DHT22;7771;48.478;8.936;2022-12-18T13:43:32;-1.90;99.90
15343;DHT22;7771;48.478;8.936;2022-12-18T13:46:05;-1.90;99.90
15343;DHT22;7771;48.478;8.936;2022-12-18T13:48:34;-1.90;99.90
15343;DHT22;7771;48.478;8.936;2022-12-18T13:51:00;-1.90;99.90
15343;DHT22;7771;48.478;8.936;2022-12-18T13:53:29;-1.90;99.90
15343;DHT22;7771;48.478;8.936;2022-12-18T13:55:54;-1.80;99.90
15343;DHT22;7771;48.478;8.936;2022-12-18T13:58:22;-1.80;99.90
15343;DHT22;7771;48.478;8.936;2022-12-18T14:00:48;-1.90;99.90
15343;DHT22;7771;48.478;8.936;2022-12-18T14:03:19;-2.00;99.90
15343;DHT22;7771;48.478;8.936;2022-12-18T14:05:44;-2.10;99.90
15343;DHT22;7771;48.478;8.936;2022-12-18T14:08:14;-2.10;99.90
15343;DHT22;7771;48.478;8.936;2022-12-18T14:10:41;-2.10;99.90
15343;DHT22;7771;48.478;8.936;2022-12-18T14:13:08;-2.20;99.90
15343;DHT22;7771;48.478;8.936;2022-12-18T14:15:38;-2.10;99.90
15343;DHT22;7771;48.478;8.936;2022-12-18T14:18:07;-2.20;99.90
15343;DHT22;7771;48.478;8.936;2022-12-18T14:20:31;-2.30;99.90
15343;DHT22;7771;48.478;8.936;2022-12-18T14:22:56;-2.40;99.90
15343;DHT22;7771;48.478;8.936;2022-12-18T14:25:25;-2.50;99.90
15343;DHT22;7771;48.478;8.936;2022-12-18T14:27:51;-2.50;99.90
15343;DHT22;7771;48.478;8.936;2022-12-18T14:30:27;-2.60;99.90
15343;DHT22;7771;48.478;8.936;2022-12-18T14:33:03;-2.60;99.90
15343;DHT22;7771;48.478;8.936;2022-12-18T14:35:29;-2.70;99.90
15343;DHT22;7771;48.478;8.936;2022-12-18T14:40:34;-2.70;99.90
15343;DHT22;7771;48.478;8.936;2022-12-18T14:43:01;-2.80;99.90
15343;DHT22;7771;48.478;8.936;2022-12-18T14:45:36;-2.80;99.90
15343;DHT22;7771;48.478;8.936;2022-12-18T14:48:05;-2.80;99.90
15343;DHT22;7771;48.478;8.936;2022-12-18T14:50:29;-2.80;99.90
15343;DHT22;7771;48.478;8.936;2022-12-18T14:52:56;-2.80;99.90
15343;DHT22;7771;48.478;8.936;2022-12-18T14:57:51;-2.80;99.90
15343;DHT22;7771;48.478;8.936;2022-12-18T15:00:18;-2.80;99.90
15343;DHT22;7771;48.478;8.936;2022-12-18T15:02:46;-2.90;99.90
15343;DHT22;7771;48.478;8.936;2022-12-18T15:05:25;-2.80;99.90
15343;DHT22;7771;48.478;8.936;2022-12-18T15:07:52;-2.90;99.90
15343;DHT22;7771;48.478;8.936;2022-12-18T15:10:20;-2.90;99.90
15343;DHT22;7771;48.478;8.936;2022-12-18T15:17:47;-3.00;99.90
15343;DHT22;7771;48.478;8.936;2022-12-18T15:20:14;-3.10;99.90
15343;DHT22;7771;48.478;8.936;2022-12-18T15:22:41;-3.10;99.90
15343;DHT22;7771;48.478;8.936;2022-12-18T15:27:48;-3.10;99.90
15343;DHT22;7771;48.478;8.936;2022-12-18T15:30:19;-3.10;99.90
15343;DHT22;7771;48.478;8.936;2022-12-18T15:32:45;-3.10;99.90
15343;DHT22;7771;48.478;8.936;2022-12-18T15:35:16;-3.10;99.90
15343;DHT22;7771;48.478;8.936;2022-12-18T15:37:41;-3.20;99.90
15343;DHT22;7771;48.478;8.936;2022-12-18T15:40:11;-3.20;99.90
15343;DHT22;7771;48.478;8.936;2022-12-18T15:42:35;-3.20;99.90
15343;DHT22;7771;48.478;8.936;2022-12-18T15:45:11;-3.20;99.90
15343;DHT22;7771;48.478;8.936;2022-12-18T15:47:36;-3.20;99.90
15343;DHT22;7771;48.478;8.936;2022-12-18T15:50:02;-3.20;99.90
15343;DHT22;7771;48.478;8.936;2022-12-18T15:52:31;-3.30;99.90
15343;DHT22;7771;48.478;8.936;2022-12-18T15:54:57;-3.30;99.90
15343;DHT22;7771;48.478;8.936;2022-12-18T15:57:31;-3.40;99.90
15343;DHT22;7771;48.478;8.936;2022-12-18T15:59:58;-3.40;99.90
15343;DHT22;7771;48.478;8.936;2022-12-18T16:02:24;-3.50;99.90
15343;DHT22;7771;48.478;8.936;2022-12-18T16:04:51;-3.50;99.90
15343;DHT22;7771;48.478;8.936;2022-12-18T16:07:18;-3.50;99.90
15343;DHT22;7771;48.478;8.936;2022-12-18T16:09:44;-3.50;99.90
15343;DHT22;7771;48.478;8.936;2022-12-18T16:12:15;-3.50;99.90
15343;DHT22;7771;48.478;8.936;2022-12-18T16:14:40;-3.50;99.90
15343;DHT22;7771;48.478;8.936;2022-12-18T16:17:09;-3.50;99.90
15343;DHT22;7771;48.478;8.936;2022-12-18T16:19:34;-3.50;99.90
15343;DHT22;7771;48.478;8.936;2022-12-18T16:22:01;-3.60;99.90
15343;DHT22;7771;48.478;8.936;2022-12-18T16:24:29;-3.60;99.90
15343;DHT22;7771;48.478;8.936;2022-12-18T16:26:56;-3.50;99.90
15343;DHT22;7771;48.478;8.936;2022-12-18T16:29:23;-3.60;99.90
15343;DHT22;7771;48.478;8.936;2022-12-18T16:31:50;-3.50;99.90
15343;DHT22;7771;48.478;8.936;2022-12-18T16:34:20;-3.50;99.90
15343;DHT22;7771;48.478;8.936;2022-12-18T16:36:46;-3.50;99.90
15343;DHT22;7771;48.478;8.936;2022-12-18T16:39:12;-3.50;99.90
15343;DHT22;7771;48.478;8.936;2022-12-18T16:41:40;-3.50;99.90
15343;DHT22;7771;48.478;8.936;2022-12-18T16:44:07;-3.50;99.90
15343;DHT22;7771;48.478;8.936;2022-12-18T16:46:34;-3.50;99.90
15343;DHT22;7771;48.478;8.936;2022-12-18T16:49:03;-3.50;99.90
15343;DHT22;7771;48.478;8.936;2022-12-18T16:51:30;-3.40;99.90
15343;DHT22;7771;48.478;8.936;2022-12-18T16:53:57;-3.50;99.90
15343;DHT22;7771;48.478;8.936;2022-12-18T16:56:24;-3.50;99.90
15343;DHT22;7771;48.478;8.936;2022-12-18T16:58:51;-3.50;99.90
15343;DHT22;7771;48.478;8.936;2022-12-18T17:01:18;-3.50;99.90
15343;DHT22;7771;48.478;8.936;2022-12-18T17:03:50;-3.50;99.90
15343;DHT22;7771;48.478;8.936;2022-12-18T17:06:11;-3.40;99.90